createdAt,value
2019-06-25T00:02:18.099Z,88.81
2019-06-25T00:04:47.640Z,88.47
2019-06-25T00:07:17.167Z,88.65
2019-06-25T00:09:46.684Z,88.44
2019-06-25T00:12:16.165Z,88.35
2019-06-25T00:14:45.711Z,88.26
2019-06-25T00:17:15.229Z,88.33
2019-06-25T00:19:44.691Z,88.92
2019-06-25T00:22:14.166Z,89.30
2019-06-25T00:24:43.642Z,89.52
2019-06-25T00:27:13.092Z,89.71
2019-06-25T00:29:55.543Z,89.71
2019-06-25T00:32:15.534Z,89.46
2019-06-25T00:34:45.001Z,89.68
2019-06-25T00:37:14.474Z,89.85
2019-06-25T00:39:43.949Z,89.80
2019-06-25T00:42:13.429Z,89.87
2019-06-25T00:44:42.942Z,89.65
2019-06-25T00:47:12.389Z,88.48
2019-06-25T00:49:41.848Z,88.22
2019-06-25T00:52:11.293Z,88.05
2019-06-25T00:54:40.851Z,88.00
2019-06-25T00:57:10.337Z,87.95
2019-06-25T00:59:39.798Z,88.02
2019-06-25T01:02:28.230Z,88.06
2019-06-25T01:04:57.695Z,87.81
2019-06-25T01:07:27.184Z,87.89
2019-06-25T01:09:56.637Z,88.23
2019-06-25T01:12:26.132Z,88.27
2019-06-25T01:14:55.628Z,88.39
2019-06-25T01:17:25.070Z,88.81
2019-06-25T01:19:54.548Z,88.31
2019-06-25T01:22:24.024Z,88.36
2019-06-25T01:24:53.494Z,88.43
2019-06-25T01:27:23.001Z,88.35
2019-06-25T01:29:52.521Z,88.01
2019-06-25T01:32:21.961Z,88.24
2019-06-25T01:34:51.415Z,88.74
2019-06-25T01:37:20.905Z,88.34
2019-06-25T01:39:50.389Z,88.17
2019-06-25T01:42:19.909Z,88.31
2019-06-25T01:44:49.384Z,88.53
2019-06-25T01:47:18.867Z,88.81
2019-06-25T01:49:48.378Z,88.91
2019-06-25T01:52:17.886Z,89.16
2019-06-25T01:54:47.340Z,89.24
2019-06-25T01:57:16.893Z,89.60
2019-06-25T01:59:46.412Z,89.73
2019-06-25T02:02:15.898Z,89.89
2019-06-25T02:04:48.237Z,89.79
2019-06-25T02:07:16.568Z,89.68
2019-06-25T02:09:46.028Z,89.36
2019-06-25T02:12:15.494Z,89.12
2019-06-25T02:14:44.997Z,89.22
2019-06-25T02:17:14.509Z,89.58
2019-06-25T02:19:43.981Z,89.69
2019-06-25T02:22:13.454Z,89.87
2019-06-25T02:24:42.936Z,89.80
2019-06-25T02:27:12.414Z,89.42
2019-06-25T02:29:41.884Z,89.43
2019-06-25T02:32:11.351Z,89.42
2019-06-25T02:34:40.810Z,89.32
2019-06-25T02:37:10.318Z,89.03
2019-06-25T02:39:39.766Z,88.97
2019-06-25T02:42:09.291Z,89.19
2019-06-25T02:44:38.802Z,89.29
2019-06-25T02:47:08.293Z,89.46
2019-06-25T02:49:37.740Z,89.33
2019-06-25T02:52:07.216Z,89.53
2019-06-25T02:54:36.689Z,89.07
2019-06-25T02:57:06.140Z,89.36
2019-06-25T02:59:35.693Z,89.42
2019-06-25T03:02:05.143Z,90.23
2019-06-25T03:04:34.595Z,90.28
2019-06-25T03:07:04.104Z,90.58
2019-06-25T03:09:33.835Z,90.50
2019-06-25T03:12:03.282Z,90.74
2019-06-25T03:14:32.747Z,91.10
2019-06-25T03:17:02.248Z,91.59
2019-06-25T03:19:31.693Z,91.93
2019-06-25T03:22:01.288Z,91.68
2019-06-25T03:24:30.790Z,91.20
2019-06-25T03:27:00.249Z,91.14
2019-06-25T03:29:33.622Z,90.39
2019-06-25T03:32:08.347Z,90.52
2019-06-25T03:34:32.078Z,90.64
2019-06-25T03:37:01.616Z,90.12
2019-06-25T03:39:31.078Z,89.98
2019-06-25T03:42:00.607Z,90.14
2019-06-25T03:44:30.071Z,88.82
2019-06-25T03:46:59.580Z,88.44
2019-06-25T03:49:29.037Z,87.12
2019-06-25T03:51:58.502Z,87.42
2019-06-25T03:54:28.019Z,86.83
2019-06-25T03:56:57.469Z,86.28
2019-06-25T03:59:26.944Z,85.95
2019-06-25T04:01:56.650Z,86.49
2019-06-25T04:04:26.142Z,85.34
2019-06-25T04:06:55.657Z,85.17
2019-06-25T04:09:25.127Z,85.64
2019-06-25T04:11:54.601Z,85.43
2019-06-25T04:14:24.077Z,86.02
2019-06-25T04:16:53.551Z,86.13
2019-06-25T04:19:23.034Z,85.23
2019-06-25T04:21:52.494Z,84.57
2019-06-25T04:24:21.998Z,84.37
2019-06-25T04:26:51.441Z,83.87
2019-06-25T04:29:20.949Z,83.58
2019-06-25T04:31:50.460Z,83.02
2019-06-25T04:34:19.998Z,82.71
2019-06-25T04:36:49.499Z,82.54
2019-06-25T04:39:18.984Z,82.30
2019-06-25T04:41:48.486Z,82.39
2019-06-25T04:44:17.952Z,81.23
2019-06-25T04:46:47.457Z,80.93
2019-06-25T04:49:16.907Z,80.42
2019-06-25T04:51:46.383Z,79.52
2019-06-25T04:54:15.895Z,78.06
2019-06-25T04:56:45.437Z,75.97
2019-06-25T04:59:14.904Z,71.52
2019-06-25T05:01:44.335Z,67.55
2019-06-25T05:04:13.812Z,64.62
2019-06-25T05:06:43.303Z,62.74
2019-06-25T05:09:12.861Z,60.42
2019-06-25T05:11:42.424Z,58.48
2019-06-25T05:14:12.221Z,57.59
2019-06-25T05:16:42.007Z,56.28
2019-06-25T05:19:11.610Z,55.52
2019-06-25T05:21:41.945Z,54.82
2019-06-25T05:24:11.453Z,53.66
2019-06-25T05:26:40.990Z,53.48
2019-06-25T05:29:10.466Z,52.72
2019-06-25T05:31:40.250Z,52.34
2019-06-25T05:34:09.728Z,52.06
2019-06-25T05:37:04.024Z,51.57
2019-06-25T05:39:33.470Z,51.36
2019-06-25T05:42:02.917Z,51.72
2019-06-25T05:44:32.389Z,51.72
2019-06-25T05:47:03.491Z,50.87
2019-06-25T05:49:33.033Z,50.36
2019-06-25T05:52:02.537Z,51.38
2019-06-25T05:54:31.994Z,51.91
2019-06-25T05:57:01.475Z,51.49
2019-06-25T05:59:30.977Z,53.23
2019-06-25T06:02:00.450Z,53.51
2019-06-25T06:04:29.949Z,53.55
2019-06-25T06:06:59.421Z,55.15
2019-06-25T06:09:28.899Z,55.57
2019-06-25T06:12:00.908Z,56.27
2019-06-25T06:14:30.518Z,57.01
2019-06-25T06:16:59.992Z,57.23
2019-06-25T06:19:30.264Z,57.46
2019-06-25T06:21:59.833Z,58.36
2019-06-25T06:24:29.612Z,59.48
2019-06-25T06:26:59.054Z,60.02
2019-06-25T06:29:28.552Z,60.91
2019-06-25T06:31:58.435Z,60.82
2019-06-25T06:34:28.192Z,60.86
2019-06-25T06:36:57.635Z,60.46
2019-06-25T06:39:27.178Z,61.55
2019-06-25T06:41:56.657Z,61.85
2019-06-25T06:44:26.239Z,61.81
2019-06-25T06:46:55.847Z,61.40
2019-06-25T06:49:25.324Z,61.66
2019-06-25T06:51:54.785Z,61.95
2019-06-25T06:54:24.227Z,61.98
2019-06-25T06:56:53.873Z,62.02
2019-06-25T06:59:23.574Z,61.81
2019-06-25T07:01:53.138Z,61.47
2019-06-25T07:04:22.631Z,61.69
2019-06-25T07:06:52.126Z,61.86
2019-06-25T07:09:22.035Z,62.38
2019-06-25T07:11:51.599Z,63.08
2019-06-25T07:14:21.075Z,62.77
2019-06-25T07:16:50.561Z,62.97
2019-06-25T07:19:20.280Z,63.01
2019-06-25T07:21:50.134Z,62.59
2019-06-25T07:24:19.644Z,61.90
2019-06-25T07:26:49.132Z,61.87
2019-06-25T07:29:18.839Z,62.35
2019-06-25T07:31:48.451Z,62.97
2019-06-25T07:34:18.161Z,62.36
2019-06-25T07:36:47.939Z,63.18
2019-06-25T07:39:17.446Z,62.33
2019-06-25T07:41:46.962Z,61.56
2019-06-25T07:44:16.454Z,61.26
2019-06-25T07:46:46.003Z,61.81
2019-06-25T07:49:15.575Z,61.91
2019-06-25T07:51:45.047Z,62.21
2019-06-25T07:54:14.803Z,63.34
2019-06-25T07:56:44.420Z,63.05
2019-06-25T07:59:14.183Z,62.19
2019-06-25T08:01:44.803Z,63.03
2019-06-25T08:04:24.872Z,62.95
2019-06-25T08:06:45.861Z,63.01
2019-06-25T08:09:15.412Z,62.62
2019-06-25T08:11:44.920Z,62.70
2019-06-25T08:14:14.417Z,62.96
2019-06-25T08:16:43.904Z,63.04
2019-06-25T08:19:13.751Z,63.23
2019-06-25T08:21:43.686Z,63.82
2019-06-25T08:24:13.763Z,61.93
2019-06-25T08:26:43.473Z,62.18
2019-06-25T08:29:12.973Z,62.49
2019-06-25T08:31:42.549Z,62.59
2019-06-25T08:34:12.243Z,61.53
2019-06-25T08:36:41.707Z,60.57
2019-06-25T08:39:11.212Z,60.95
2019-06-25T08:41:40.735Z,61.42
2019-06-25T08:44:10.326Z,60.53
2019-06-25T08:46:40.025Z,60.18
2019-06-25T08:49:09.543Z,60.78
2019-06-25T08:51:39.048Z,60.91
2019-06-25T08:54:08.646Z,58.90
2019-06-25T08:56:38.169Z,59.70
2019-06-25T08:59:07.638Z,59.34
2019-06-25T09:01:37.129Z,58.35
2019-06-25T09:04:06.729Z,58.13
2019-06-25T09:06:36.167Z,59.04
2019-06-25T09:09:07.464Z,58.74
2019-06-25T09:11:37.061Z,58.61
2019-06-25T09:14:07.008Z,58.07
2019-06-25T09:16:36.559Z,58.14
2019-06-25T09:19:06.174Z,57.87
2019-06-25T09:21:35.759Z,57.57
2019-06-25T09:24:05.234Z,57.04
2019-06-25T09:26:34.747Z,57.30
2019-06-25T09:29:04.338Z,57.22
2019-06-25T09:31:33.920Z,56.47
2019-06-25T09:34:03.411Z,56.09
2019-06-25T09:36:32.894Z,55.66
2019-06-25T09:39:02.780Z,56.01
2019-06-25T09:41:30.487Z,56.29
2019-06-25T09:44:00.582Z,57.30
2019-06-25T09:46:29.850Z,57.65
2019-06-25T09:48:59.708Z,58.27
2019-06-25T09:51:29.356Z,56.24
2019-06-25T09:53:58.940Z,56.20
2019-06-25T09:56:30.344Z,56.59
2019-06-25T09:59:00.235Z,57.12
2019-06-25T10:01:44.215Z,57.12
2019-06-25T10:04:00.925Z,57.77
2019-06-25T10:06:30.392Z,58.71
2019-06-25T10:08:59.905Z,59.23
2019-06-25T10:11:29.428Z,58.33
2019-06-25T10:13:58.964Z,58.22
2019-06-25T10:16:28.407Z,56.48
2019-06-25T10:18:57.881Z,56.98
2019-06-25T10:21:27.492Z,55.65
2019-06-25T10:23:57.016Z,54.29
2019-06-25T10:26:26.638Z,54.38
2019-06-25T10:28:56.299Z,53.71
2019-06-25T10:31:25.753Z,53.94
2019-06-25T10:33:55.257Z,53.17
2019-06-25T10:36:24.769Z,54.62
2019-06-25T10:38:54.292Z,54.38
2019-06-25T10:41:26.004Z,54.25
2019-06-25T10:43:57.581Z,54.15
2019-06-25T10:46:27.128Z,53.26
2019-06-25T10:48:56.636Z,53.94
2019-06-25T10:51:26.525Z,53.15
2019-06-25T10:53:56.054Z,52.96
2019-06-25T10:56:27.588Z,52.87
2019-06-25T10:58:56.824Z,53.16
2019-06-25T11:01:26.332Z,52.35
2019-06-25T11:03:55.810Z,52.65
2019-06-25T11:06:25.393Z,52.04
2019-06-25T11:08:54.873Z,51.89
2019-06-25T11:11:24.348Z,53.05
2019-06-25T11:14:07.314Z,52.99
2019-06-25T11:16:25.013Z,51.94
2019-06-25T11:18:54.479Z,53.22
2019-06-25T11:21:24.005Z,52.02
2019-06-25T11:23:53.505Z,53.45
2019-06-25T11:26:24.215Z,52.49
2019-06-25T11:28:53.745Z,53.22
2019-06-25T11:31:23.296Z,52.70
2019-06-25T11:33:52.742Z,51.98
2019-06-25T11:36:22.403Z,51.95
2019-06-25T11:38:51.941Z,51.17
2019-06-25T11:41:21.402Z,51.88
2019-06-25T11:43:50.985Z,52.17
2019-06-25T11:46:20.668Z,52.09
2019-06-25T11:48:50.239Z,51.65
2019-06-25T11:51:19.908Z,51.82
2019-06-25T11:53:49.424Z,51.34
2019-06-25T11:56:18.954Z,50.91
2019-06-25T11:58:48.518Z,50.45
2019-06-25T12:01:18.369Z,49.78
2019-06-25T12:03:47.852Z,49.98
2019-06-25T12:06:32.513Z,50.85
2019-06-25T12:08:48.623Z,50.70
2019-06-25T12:11:18.108Z,51.67
2019-06-25T12:13:47.602Z,51.01
2019-06-25T12:16:17.210Z,51.82
2019-06-25T12:18:46.690Z,51.38
2019-06-25T12:21:16.179Z,51.71
2019-06-25T12:23:45.714Z,52.39
2019-06-25T12:26:15.257Z,52.52
2019-06-25T12:28:44.751Z,52.52
2019-06-25T12:31:14.301Z,52.79
2019-06-25T12:33:43.770Z,52.91
2019-06-25T12:36:13.226Z,53.13
2019-06-25T12:38:42.714Z,53.58
2019-06-25T12:41:12.192Z,54.10
2019-06-25T12:43:41.717Z,54.80
2019-06-25T12:46:11.386Z,54.44
2019-06-25T12:48:40.904Z,54.52
2019-06-25T12:51:14.202Z,54.29
2019-06-25T12:53:41.609Z,53.26
2019-06-25T12:56:11.070Z,52.68
2019-06-25T12:58:40.578Z,52.28
2019-06-25T13:01:10.066Z,52.86
2019-06-25T13:03:39.540Z,52.63
2019-06-25T13:06:09.033Z,51.72
2019-06-25T13:08:38.573Z,52.05
2019-06-25T13:11:08.100Z,51.06
2019-06-25T13:13:37.589Z,50.15
2019-06-25T13:16:07.743Z,50.77
2019-06-25T13:18:38.671Z,50.44
2019-06-25T13:21:12.087Z,50.32
2019-06-25T13:23:41.610Z,50.43
2019-06-25T13:26:11.081Z,51.01
2019-06-25T13:28:40.530Z,51.75
2019-06-25T13:31:10.033Z,52.62
2019-06-25T13:33:39.633Z,51.86
2019-06-25T13:36:09.150Z,51.39
2019-06-25T13:38:38.925Z,51.57
2019-06-25T13:41:08.434Z,51.36
2019-06-25T13:43:38.018Z,51.58
2019-06-25T13:46:07.748Z,51.26
2019-06-25T13:48:37.493Z,49.17
2019-06-25T13:51:07.036Z,48.52
2019-06-25T13:53:36.506Z,47.16
2019-06-25T13:56:06.272Z,46.88
2019-06-25T13:58:35.946Z,47.55
2019-06-25T14:01:05.476Z,46.92
2019-06-25T14:03:34.959Z,51.58
2019-06-25T14:06:04.437Z,49.35
2019-06-25T14:08:33.923Z,49.24
2019-06-25T14:11:03.404Z,47.93
2019-06-25T14:13:32.968Z,49.08
2019-06-25T14:16:02.503Z,55.76
2019-06-25T14:18:32.046Z,61.21
2019-06-25T14:21:01.551Z,60.71
2019-06-25T14:23:31.064Z,61.33
2019-06-25T14:26:10.440Z,64.30
2019-06-25T14:28:31.844Z,63.89
2019-06-25T14:31:01.488Z,64.76
2019-06-25T14:33:30.982Z,64.83
2019-06-25T14:36:00.591Z,64.21
2019-06-25T14:38:33.204Z,64.89
2019-06-25T14:41:02.762Z,64.62
2019-06-25T14:43:34.080Z,64.10
2019-06-25T14:46:03.791Z,64.89
2019-06-25T14:48:33.400Z,65.24
2019-06-25T14:51:02.905Z,60.19
2019-06-25T14:53:32.351Z,57.55
2019-06-25T14:56:01.867Z,56.80
2019-06-25T14:58:31.363Z,57.03
2019-06-25T15:01:01.253Z,56.19
2019-06-25T15:03:30.847Z,55.96
2019-06-25T15:06:00.710Z,55.89
2019-06-25T15:08:31.834Z,56.35
2019-06-25T15:11:01.682Z,55.67
2019-06-25T15:13:31.282Z,55.64
2019-06-25T15:16:00.854Z,55.36
2019-06-25T15:18:30.393Z,54.76
2019-06-25T15:20:59.944Z,55.48
2019-06-25T15:23:29.516Z,55.73
2019-06-25T15:25:59.111Z,54.81
2019-06-25T15:28:28.997Z,55.00
2019-06-25T15:30:58.750Z,56.11
2019-06-25T15:33:28.942Z,56.54
2019-06-25T15:35:59.956Z,56.52
2019-06-25T15:38:29.527Z,55.96
2019-06-25T15:40:59.390Z,55.14
2019-06-25T15:43:32.280Z,55.88
2019-06-25T15:46:00.637Z,56.48
2019-06-25T15:48:30.694Z,58.07
2019-06-25T15:51:00.480Z,58.41
2019-06-25T15:53:30.111Z,55.13
2019-06-25T15:55:59.640Z,54.08
2019-06-25T15:58:29.154Z,55.67
2019-06-25T16:00:58.657Z,57.20
2019-06-25T16:03:28.239Z,55.75
2019-06-25T16:05:57.691Z,53.13
2019-06-25T16:08:27.233Z,52.88
2019-06-25T16:10:56.690Z,54.84
2019-06-25T16:13:26.214Z,55.68
2019-06-25T16:15:55.766Z,55.93
2019-06-25T16:18:25.400Z,56.58
2019-06-25T16:20:54.867Z,56.33
2019-06-25T16:23:24.542Z,56.96
2019-06-25T16:25:54.183Z,57.81
2019-06-25T16:28:23.656Z,58.90
2019-06-25T16:30:53.143Z,59.68
2019-06-25T16:33:22.617Z,60.67
2019-06-25T16:35:52.146Z,62.00
2019-06-25T16:38:30.563Z,63.13
2019-06-25T16:40:52.966Z,65.39
2019-06-25T16:43:23.463Z,64.77
2019-06-25T16:46:00.518Z,64.72
2019-06-25T16:48:24.465Z,64.79
2019-06-25T16:50:53.984Z,65.66
2019-06-25T16:53:23.653Z,66.04
2019-06-25T16:55:53.222Z,65.88
2019-06-25T16:58:22.671Z,66.50
2019-06-25T17:00:52.180Z,67.38
2019-06-25T17:03:21.659Z,69.44
2019-06-25T17:05:51.181Z,70.24
2019-06-25T17:08:20.922Z,71.43
2019-06-25T17:10:53.038Z,72.26
2019-06-25T17:13:23.165Z,72.77
2019-06-25T17:15:53.921Z,72.98
2019-06-25T17:20:58.000Z,73.09
2019-06-25T17:23:31.361Z,74.20
2019-06-25T17:26:14.817Z,74.48
2019-06-25T17:28:45.090Z,73.99
2019-06-25T17:31:14.783Z,73.82
2019-06-25T17:33:44.775Z,74.77
2019-06-25T17:36:14.388Z,75.75
2019-06-25T17:38:51.303Z,77.25
2019-06-25T17:41:26.203Z,76.17
2019-06-25T17:43:58.154Z,76.60
2019-06-25T17:46:29.709Z,77.94
2019-06-25T17:48:59.490Z,78.18
2019-06-25T17:51:29.778Z,76.87
2019-06-25T17:53:59.326Z,77.11
2019-06-25T17:56:28.971Z,77.02
2019-06-25T17:58:58.777Z,77.05
2019-06-25T18:01:28.454Z,77.86
2019-06-25T18:03:58.232Z,77.91
2019-06-25T18:06:27.794Z,79.36
2019-06-25T18:08:57.366Z,79.22
2019-06-25T18:11:26.915Z,79.00
2019-06-25T18:13:56.504Z,77.51
2019-06-25T18:16:26.097Z,77.76
2019-06-25T18:18:55.712Z,76.42
2019-06-25T18:21:25.306Z,76.62
2019-06-25T18:24:02.868Z,75.75
2019-06-25T18:26:32.551Z,76.06
2019-06-25T18:29:02.341Z,75.19
2019-06-25T18:31:31.934Z,76.06
2019-06-25T18:34:01.516Z,76.08
2019-06-25T18:36:31.075Z,76.33
2019-06-25T18:39:00.629Z,77.29
2019-06-25T18:41:30.196Z,75.39
2019-06-25T18:44:00.045Z,75.40
2019-06-25T18:46:29.649Z,75.61
2019-06-25T18:49:00.301Z,74.82
2019-06-25T18:51:31.773Z,74.33
2019-06-25T18:54:11.815Z,74.29
2019-06-25T18:57:06.779Z,73.74
2019-06-25T18:59:36.351Z,73.25
2019-06-25T19:02:06.086Z,73.55
2019-06-25T19:04:35.669Z,74.47
2019-06-25T19:07:08.744Z,74.67
2019-06-25T19:09:36.503Z,75.80
2019-06-25T19:12:06.073Z,75.88
2019-06-25T19:14:37.385Z,76.82
2019-06-25T19:17:07.021Z,76.51
2019-06-25T19:19:40.530Z,77.06
2019-06-25T19:22:10.265Z,77.56
2019-06-25T19:24:43.122Z,77.23
2019-06-25T19:27:13.045Z,76.83
2019-06-25T19:29:42.738Z,76.78
2019-06-25T19:32:14.309Z,77.89
2019-06-25T19:34:44.210Z,78.63
2019-06-25T19:37:14.077Z,78.22
2019-06-25T19:39:43.839Z,78.13
2019-06-25T19:42:13.624Z,78.06
2019-06-25T19:44:43.389Z,80.03
2019-06-25T19:47:17.143Z,81.86
2019-06-25T19:49:47.021Z,82.55
2019-06-25T19:52:20.076Z,83.67
2019-06-25T19:54:49.660Z,83.38
2019-06-25T19:57:19.834Z,83.11
2019-06-25T19:59:49.417Z,83.48
2019-06-25T20:02:19.353Z,83.38
2019-06-25T20:04:48.984Z,84.05
2019-06-25T20:07:18.582Z,84.14
2019-06-25T20:09:48.215Z,85.01
2019-06-25T20:12:18.228Z,84.53
2019-06-25T20:14:50.624Z,85.19
2019-06-25T20:17:20.547Z,85.64
2019-06-25T20:19:50.271Z,85.69
2019-06-25T20:22:20.032Z,85.36
2019-06-25T20:24:49.820Z,85.56
2019-06-25T20:27:23.463Z,84.58
2019-06-25T20:29:55.840Z,83.68
2019-06-25T20:32:37.530Z,83.65
2019-06-25T20:35:04.626Z,83.80
2019-06-25T20:37:34.258Z,83.36
2019-06-25T20:40:03.851Z,83.76
2019-06-25T20:42:33.527Z,83.44
2019-06-25T20:45:03.070Z,83.39
2019-06-25T20:47:33.256Z,83.28
2019-06-25T20:50:02.800Z,83.39
2019-06-25T20:52:32.296Z,83.41
2019-06-25T20:55:01.930Z,84.24
2019-06-25T20:57:31.483Z,83.80
2019-06-25T21:00:00.990Z,83.34
2019-06-25T21:02:30.512Z,79.89
2019-06-25T21:05:00.066Z,78.02
2019-06-25T21:07:29.508Z,79.41
2019-06-25T21:09:59.055Z,78.00
2019-06-25T21:12:28.587Z,76.72
2019-06-25T21:14:58.147Z,77.67
2019-06-25T21:17:28.733Z,77.83
2019-06-25T21:19:58.345Z,77.64
2019-06-25T21:22:28.158Z,78.11
2019-06-25T21:24:57.605Z,78.52
2019-06-25T21:27:27.071Z,78.23
2019-06-25T21:29:56.576Z,78.21
2019-06-25T21:32:26.188Z,78.03
2019-06-25T21:34:55.674Z,77.86
2019-06-25T21:37:25.550Z,77.87
2019-06-25T21:39:55.087Z,77.93
2019-06-25T21:42:24.582Z,77.20
2019-06-25T21:44:54.076Z,77.39
2019-06-25T21:47:23.557Z,77.76
2019-06-25T21:49:53.025Z,78.12
2019-06-25T21:52:22.505Z,78.44
2019-06-25T21:54:52.157Z,80.09
2019-06-25T21:57:21.695Z,80.43
2019-06-25T21:59:51.205Z,79.78
2019-06-25T22:02:24.377Z,79.74
2019-06-25T22:04:53.857Z,79.73
2019-06-25T22:07:23.390Z,80.35
2019-06-25T22:09:52.869Z,80.54
2019-06-25T22:12:22.414Z,81.46
2019-06-25T22:14:51.911Z,82.13
2019-06-25T22:17:21.373Z,82.73
2019-06-25T22:19:50.910Z,83.61
2019-06-25T22:22:20.730Z,83.41
2019-06-25T22:24:50.661Z,82.43
2019-06-25T22:27:20.157Z,81.81
2019-06-25T22:29:49.664Z,81.52
2019-06-25T22:32:19.150Z,81.11
2019-06-25T22:34:48.649Z,81.77
2019-06-25T22:37:18.142Z,82.06
2019-06-25T22:39:47.619Z,82.45
2019-06-25T22:42:17.190Z,82.89
2019-06-25T22:44:46.721Z,83.38
2019-06-25T22:47:16.193Z,84.57
2019-06-25T22:49:45.660Z,85.45
2019-06-25T22:52:15.141Z,85.30
2019-06-25T22:54:44.625Z,85.55
2019-06-25T22:57:14.099Z,85.91
2019-06-25T22:59:43.596Z,86.18
2019-06-25T23:02:13.167Z,85.53
2019-06-25T23:04:42.692Z,85.30
2019-06-25T23:07:12.174Z,85.21
2019-06-25T23:09:41.758Z,85.29
2019-06-25T23:12:11.258Z,85.91
2019-06-25T23:14:40.754Z,86.24
2019-06-25T23:17:10.270Z,86.52
2019-06-25T23:19:41.451Z,87.28
2019-06-25T23:22:11.117Z,87.77
2019-06-25T23:24:40.765Z,87.36
2019-06-25T23:27:10.198Z,86.98
2019-06-25T23:29:39.839Z,86.62
2019-06-25T23:32:09.346Z,86.49
2019-06-25T23:34:38.819Z,86.66
2019-06-25T23:37:08.339Z,86.52
2019-06-25T23:39:37.887Z,86.78
2019-06-25T23:42:07.453Z,86.47
2019-06-25T23:44:36.941Z,85.95
2019-06-25T23:47:06.411Z,85.95
2019-06-25T23:49:35.941Z,84.70
2019-06-25T23:52:05.513Z,83.46
2019-06-25T23:54:34.999Z,84.51
2019-06-25T23:57:04.490Z,85.60
2019-06-25T23:59:34.023Z,86.48
